sensor_id;sensor_type;location;lat;lon;timestamp;P1;durP1;ratioP1;P2;durP2;ratioP2
27293;SDS011;14785;52.556;13.430;2023-04-24T00:00:55;3.00;;;2.20;;
27293;SDS011;14785;52.556;13.430;2023-04-24T00:03:22;3.03;;;2.03;;
27293;SDS011;14785;52.556;13.430;2023-04-24T00:05:49;2.95;;;1.52;;
27293;SDS011;14785;52.556;13.430;2023-04-24T00:08:16;2.67;;;1.52;;
27293;SDS011;14785;52.556;13.430;2023-04-24T00:10:42;3.33;;;1.95;;
27293;SDS011;14785;52.556;13.430;2023-04-24T00:13:09;2.20;;;1.75;;
27293;SDS011;14785;52.556;13.430;2023-04-24T00:15:35;4.53;;;2.20;;
27293;SDS011;14785;52.556;13.430;2023-04-24T00:18:00;3.13;;;2.17;;
27293;SDS011;14785;52.556;13.430;2023-04-24T00:20:28;2.15;;;1.40;;
27293;SDS011;14785;52.556;13.430;2023-04-24T00:23:04;3.53;;;1.70;;
27293;SDS011;14785;52.556;13.430;2023-04-24T00:25:30;3.53;;;2.03;;
27293;SDS011;14785;52.556;13.430;2023-04-24T00:27:55;4.90;;;2.23;;
27293;SDS011;14785;52.556;13.430;2023-04-24T00:30:21;3.30;;;2.17;;
27293;SDS011;14785;52.556;13.430;2023-04-24T00:32:46;2.43;;;1.77;;
27293;SDS011;14785;52.556;13.430;2023-04-24T00:35:12;3.13;;;1.93;;
27293;SDS011;14785;52.556;13.430;2023-04-24T00:37:37;2.10;;;1.87;;
27293;SDS011;14785;52.556;13.430;2023-04-24T00:40:02;2.00;;;1.63;;
27293;SDS011;14785;52.556;13.430;2023-04-24T00:42:28;2.95;;;1.65;;
27293;SDS011;14785;52.556;13.430;2023-04-24T00:44:54;4.17;;;2.63;;
27293;SDS011;14785;52.556;13.430;2023-04-24T00:47:22;2.22;;;1.63;;
27293;SDS011;14785;52.556;13.430;2023-04-24T00:49:48;3.72;;;2.53;;
27293;SDS011;14785;52.556;13.430;2023-04-24T00:52:14;4.00;;;2.73;;
27293;SDS011;14785;52.556;13.430;2023-04-24T00:54:43;3.08;;;1.95;;
27293;SDS011;14785;52.556;13.430;2023-04-24T00:57:09;2.53;;;1.85;;
27293;SDS011;14785;52.556;13.430;2023-04-24T00:59:35;2.53;;;1.90;;
27293;SDS011;14785;52.556;13.430;2023-04-24T01:02:01;1.60;;;1.40;;
27293;SDS011;14785;52.556;13.430;2023-04-24T01:04:27;2.70;;;1.80;;
27293;SDS011;14785;52.556;13.430;2023-04-24T01:06:53;1.92;;;1.52;;
27293;SDS011;14785;52.556;13.430;2023-04-24T01:09:21;3.22;;;1.90;;
27293;SDS011;14785;52.556;13.430;2023-04-24T01:11:48;2.80;;;1.80;;
27293;SDS011;14785;52.556;13.430;2023-04-24T01:16:39;2.35;;;1.90;;
27293;SDS011;14785;52.556;13.430;2023-04-24T01:19:06;2.63;;;1.80;;
27293;SDS011;14785;52.556;13.430;2023-04-24T01:21:33;3.40;;;2.05;;
27293;SDS011;14785;52.556;13.430;2023-04-24T01:24:01;2.15;;;1.40;;
27293;SDS011;14785;52.556;13.430;2023-04-24T01:26:27;2.42;;;1.65;;
27293;SDS011;14785;52.556;13.430;2023-04-24T01:28:53;2.83;;;1.80;;
27293;SDS011;14785;52.556;13.430;2023-04-24T01:31:18;2.33;;;1.53;;
27293;SDS011;14785;52.556;13.430;2023-04-24T01:33:44;2.40;;;1.90;;
27293;SDS011;14785;52.556;13.430;2023-04-24T01:36:10;3.03;;;2.10;;
27293;SDS011;14785;52.556;13.430;2023-04-24T01:38:36;4.28;;;2.22;;
27293;SDS011;14785;52.556;13.430;2023-04-24T01:41:02;2.93;;;2.23;;
27293;SDS011;14785;52.556;13.430;2023-04-24T01:43:28;2.33;;;1.33;;
27293;SDS011;14785;52.556;13.430;2023-04-24T01:45:54;3.50;;;1.98;;
27293;SDS011;14785;52.556;13.430;2023-04-24T01:48:19;2.50;;;1.67;;
27293;SDS011;14785;52.556;13.430;2023-04-24T01:50:45;3.58;;;1.90;;
27293;SDS011;14785;52.556;13.430;2023-04-24T01:53:10;4.37;;;2.70;;
27293;SDS011;14785;52.556;13.430;2023-04-24T01:55:36;2.73;;;1.80;;
27293;SDS011;14785;52.556;13.430;2023-04-24T01:58:01;6.13;;;2.17;;
27293;SDS011;14785;52.556;13.430;2023-04-24T02:00:27;5.68;;;2.22;;
27293;SDS011;14785;52.556;13.430;2023-04-24T02:02:53;2.60;;;2.40;;
27293;SDS011;14785;52.556;13.430;2023-04-24T02:05:18;3.70;;;2.37;;
27293;SDS011;14785;52.556;13.430;2023-04-24T02:07:44;3.10;;;2.17;;
27293;SDS011;14785;52.556;13.430;2023-04-24T02:10:10;4.07;;;2.53;;
27293;SDS011;14785;52.556;13.430;2023-04-24T02:12:35;3.33;;;1.80;;
27293;SDS011;14785;52.556;13.430;2023-04-24T02:15:01;4.93;;;2.37;;
27293;SDS011;14785;52.556;13.430;2023-04-24T02:17:26;7.97;;;4.80;;
27293;SDS011;14785;52.556;13.430;2023-04-24T02:19:51;3.80;;;2.57;;
27293;SDS011;14785;52.556;13.430;2023-04-24T02:22:17;2.93;;;2.33;;
27293;SDS011;14785;52.556;13.430;2023-04-24T02:24:42;3.87;;;2.40;;
27293;SDS011;14785;52.556;13.430;2023-04-24T02:27:08;3.07;;;2.00;;
27293;SDS011;14785;52.556;13.430;2023-04-24T02:29:33;2.03;;;1.83;;
27293;SDS011;14785;52.556;13.430;2023-04-24T02:31:58;3.50;;;2.70;;
27293;SDS011;14785;52.556;13.430;2023-04-24T02:34:24;2.93;;;2.17;;
27293;SDS011;14785;52.556;13.430;2023-04-24T02:36:50;3.95;;;2.25;;
27293;SDS011;14785;52.556;13.430;2023-04-24T02:39:15;7.27;;;3.93;;
27293;SDS011;14785;52.556;13.430;2023-04-24T02:41:43;5.25;;;2.38;;
27293;SDS011;14785;52.556;13.430;2023-04-24T02:44:09;3.97;;;2.40;;
27293;SDS011;14785;52.556;13.430;2023-04-24T02:46:34;4.47;;;2.43;;
27293;SDS011;14785;52.556;13.430;2023-04-24T02:49:00;4.43;;;2.83;;
27293;SDS011;14785;52.556;13.430;2023-04-24T02:51:25;5.30;;;2.90;;
27293;SDS011;14785;52.556;13.430;2023-04-24T02:53:52;5.85;;;3.33;;
27293;SDS011;14785;52.556;13.430;2023-04-24T02:56:17;4.53;;;2.87;;
27293;SDS011;14785;52.556;13.430;2023-04-24T02:58:42;3.87;;;2.50;;
27293;SDS011;14785;52.556;13.430;2023-04-24T03:01:08;4.37;;;2.57;;
27293;SDS011;14785;52.556;13.430;2023-04-24T03:03:35;3.95;;;2.50;;
27293;SDS011;14785;52.556;13.430;2023-04-24T03:06:01;5.00;;;2.70;;
27293;SDS011;14785;52.556;13.430;2023-04-24T03:08:26;4.68;;;2.88;;
27293;SDS011;14785;52.556;13.430;2023-04-24T03:10:52;4.90;;;2.93;;
27293;SDS011;14785;52.556;13.430;2023-04-24T03:13:17;4.60;;;3.03;;
27293;SDS011;14785;52.556;13.430;2023-04-24T03:15:43;4.43;;;2.60;;
27293;SDS011;14785;52.556;13.430;2023-04-24T03:20:35;7.20;;;3.33;;
27293;SDS011;14785;52.556;13.430;2023-04-24T03:23:01;6.47;;;2.90;;
27293;SDS011;14785;52.556;13.430;2023-04-24T03:25:27;4.10;;;2.63;;
27293;SDS011;14785;52.556;13.430;2023-04-24T03:27:53;6.73;;;3.33;;
27293;SDS011;14785;52.556;13.430;2023-04-24T03:32:45;4.20;;;2.88;;
27293;SDS011;14785;52.556;13.430;2023-04-24T03:35:10;4.43;;;2.47;;
27293;SDS011;14785;52.556;13.430;2023-04-24T03:37:36;3.60;;;2.63;;
27293;SDS011;14785;52.556;13.430;2023-04-24T03:40:01;3.67;;;2.53;;
27293;SDS011;14785;52.556;13.430;2023-04-24T03:42:27;5.28;;;2.92;;
27293;SDS011;14785;52.556;13.430;2023-04-24T03:44:52;4.17;;;2.50;;
27293;SDS011;14785;52.556;13.430;2023-04-24T03:47:18;3.00;;;2.63;;
27293;SDS011;14785;52.556;13.430;2023-04-24T03:49:43;4.07;;;2.60;;
27293;SDS011;14785;52.556;13.430;2023-04-24T03:52:09;4.97;;;2.30;;
27293;SDS011;14785;52.556;13.430;2023-04-24T03:54:34;4.40;;;2.70;;
27293;SDS011;14785;52.556;13.430;2023-04-24T03:57:00;3.97;;;2.53;;
27293;SDS011;14785;52.556;13.430;2023-04-24T03:59:28;6.00;;;1.88;;
27293;SDS011;14785;52.556;13.430;2023-04-24T04:01:53;3.93;;;2.77;;
27293;SDS011;14785;52.556;13.430;2023-04-24T04:04:18;5.47;;;2.53;;
27293;SDS011;14785;52.556;13.430;2023-04-24T04:06:44;4.90;;;2.87;;
27293;SDS011;14785;52.556;13.430;2023-04-24T04:09:09;3.23;;;2.40;;
27293;SDS011;14785;52.556;13.430;2023-04-24T04:11:35;4.18;;;2.53;;
27293;SDS011;14785;52.556;13.430;2023-04-24T04:14:01;2.50;;;1.80;;
27293;SDS011;14785;52.556;13.430;2023-04-24T04:16:27;3.73;;;3.20;;
27293;SDS011;14785;52.556;13.430;2023-04-24T04:18:52;5.87;;;2.97;;
27293;SDS011;14785;52.556;13.430;2023-04-24T04:21:17;7.67;;;3.70;;
27293;SDS011;14785;52.556;13.430;2023-04-24T04:23:43;4.10;;;2.50;;
27293;SDS011;14785;52.556;13.430;2023-04-24T04:26:08;3.60;;;2.83;;
27293;SDS011;14785;52.556;13.430;2023-04-24T04:28:34;4.43;;;2.27;;
27293;SDS011;14785;52.556;13.430;2023-04-24T04:31:01;5.88;;;2.40;;
27293;SDS011;14785;52.556;13.430;2023-04-24T04:33:26;3.40;;;1.90;;
27293;SDS011;14785;52.556;13.430;2023-04-24T04:35:52;9.33;;;2.63;;
27293;SDS011;14785;52.556;13.430;2023-04-24T04:38:20;7.23;;;2.63;;
27293;SDS011;14785;52.556;13.430;2023-04-24T04:40:46;8.27;;;3.13;;
27293;SDS011;14785;52.556;13.430;2023-04-24T04:43:11;5.73;;;2.73;;
27293;SDS011;14785;52.556;13.430;2023-04-24T04:45:38;6.80;;;3.22;;
27293;SDS011;14785;52.556;13.430;2023-04-24T04:48:05;4.50;;;2.45;;
27293;SDS011;14785;52.556;13.430;2023-04-24T04:50:32;4.20;;;2.63;;
27293;SDS011;14785;52.556;13.430;2023-04-24T04:52:58;3.23;;;2.30;;
27293;SDS011;14785;52.556;13.430;2023-04-24T04:55:23;5.10;;;2.73;;
27293;SDS011;14785;52.556;13.430;2023-04-24T04:57:48;2.70;;;2.03;;
27293;SDS011;14785;52.556;13.430;2023-04-24T05:00:14;6.63;;;3.00;;
27293;SDS011;14785;52.556;13.430;2023-04-24T05:02:40;5.50;;;3.13;;
27293;SDS011;14785;52.556;13.430;2023-04-24T05:05:06;5.77;;;3.40;;
27293;SDS011;14785;52.556;13.430;2023-04-24T05:07:32;5.20;;;2.67;;
27293;SDS011;14785;52.556;13.430;2023-04-24T05:09:58;4.67;;;2.50;;
27293;SDS011;14785;52.556;13.430;2023-04-24T05:12:23;5.70;;;2.80;;
27293;SDS011;14785;52.556;13.430;2023-04-24T05:14:48;4.33;;;2.67;;
27293;SDS011;14785;52.556;13.430;2023-04-24T05:17:14;3.88;;;2.58;;
27293;SDS011;14785;52.556;13.430;2023-04-24T05:19:40;3.30;;;2.03;;
27293;SDS011;14785;52.556;13.430;2023-04-24T05:22:05;4.03;;;2.60;;
27293;SDS011;14785;52.556;13.430;2023-04-24T05:24:35;4.22;;;2.30;;
27293;SDS011;14785;52.556;13.430;2023-04-24T05:27:01;4.55;;;3.03;;
27293;SDS011;14785;52.556;13.430;2023-04-24T05:29:29;6.43;;;2.50;;
27293;SDS011;14785;52.556;13.430;2023-04-24T05:31:58;2.35;;;1.77;;
27293;SDS011;14785;52.556;13.430;2023-04-24T05:34:25;3.08;;;1.73;;
27293;SDS011;14785;52.556;13.430;2023-04-24T05:36:50;3.27;;;1.77;;
27293;SDS011;14785;52.556;13.430;2023-04-24T05:39:16;3.15;;;1.90;;
27293;SDS011;14785;52.556;13.430;2023-04-24T05:41:42;4.30;;;1.47;;
27293;SDS011;14785;52.556;13.430;2023-04-24T05:44:07;2.92;;;2.35;;
27293;SDS011;14785;52.556;13.430;2023-04-24T05:46:33;2.30;;;1.57;;
27293;SDS011;14785;52.556;13.430;2023-04-24T05:48:58;2.80;;;1.37;;
27293;SDS011;14785;52.556;13.430;2023-04-24T05:51:24;2.27;;;1.47;;
27293;SDS011;14785;52.556;13.430;2023-04-24T05:53:49;5.20;;;2.33;;
27293;SDS011;14785;52.556;13.430;2023-04-24T05:56:15;2.60;;;1.30;;
27293;SDS011;14785;52.556;13.430;2023-04-24T05:58:41;1.75;;;1.33;;
27293;SDS011;14785;52.556;13.430;2023-04-24T06:01:06;2.65;;;1.23;;
27293;SDS011;14785;52.556;13.430;2023-04-24T06:03:33;4.07;;;1.33;;
27293;SDS011;14785;52.556;13.430;2023-04-24T06:08:24;2.00;;;1.45;;
27293;SDS011;14785;52.556;13.430;2023-04-24T06:10:50;1.33;;;1.10;;
27293;SDS011;14785;52.556;13.430;2023-04-24T06:13:15;2.27;;;1.03;;
27293;SDS011;14785;52.556;13.430;2023-04-24T06:15:41;1.37;;;1.20;;
27293;SDS011;14785;52.556;13.430;2023-04-24T06:18:07;0.80;;;0.80;;
27293;SDS011;14785;52.556;13.430;2023-04-24T06:20:35;5.47;;;1.85;;
27293;SDS011;14785;52.556;13.430;2023-04-24T06:23:00;6.13;;;2.10;;
27293;SDS011;14785;52.556;13.430;2023-04-24T06:25:25;1.50;;;1.30;;
27293;SDS011;14785;52.556;13.430;2023-04-24T06:27:54;3.25;;;0.95;;
27293;SDS011;14785;52.556;13.430;2023-04-24T06:30:20;3.30;;;1.30;;
27293;SDS011;14785;52.556;13.430;2023-04-24T06:32:52;1.33;;;0.90;;
27293;SDS011;14785;52.556;13.430;2023-04-24T06:35:18;2.17;;;1.02;;
27293;SDS011;14785;52.556;13.430;2023-04-24T06:37:43;3.73;;;1.50;;
27293;SDS011;14785;52.556;13.430;2023-04-24T06:40:09;3.10;;;1.20;;
27293;SDS011;14785;52.556;13.430;2023-04-24T06:42:36;1.77;;;1.10;;
27293;SDS011;14785;52.556;13.430;2023-04-24T06:45:02;2.47;;;1.60;;
27293;SDS011;14785;52.556;13.430;2023-04-24T06:47:28;1.88;;;1.45;;
27293;SDS011;14785;52.556;13.430;2023-04-24T06:49:53;1.13;;;0.80;;
27293;SDS011;14785;52.556;13.430;2023-04-24T06:52:20;2.25;;;1.50;;
27293;SDS011;14785;52.556;13.430;2023-04-24T06:54:46;6.13;;;1.35;;
27293;SDS011;14785;52.556;13.430;2023-04-24T06:57:11;4.10;;;1.63;;
27293;SDS011;14785;52.556;13.430;2023-04-24T06:59:36;2.13;;;1.03;;
27293;SDS011;14785;52.556;13.430;2023-04-24T07:02:02;0.88;;;0.80;;
27293;SDS011;14785;52.556;13.430;2023-04-24T07:04:28;2.13;;;0.93;;
27293;SDS011;14785;52.556;13.430;2023-04-24T07:06:54;5.78;;;1.02;;
27293;SDS011;14785;52.556;13.430;2023-04-24T07:09:20;0.70;;;0.60;;
27293;SDS011;14785;52.556;13.430;2023-04-24T07:11:47;1.52;;;0.82;;
27293;SDS011;14785;52.556;13.430;2023-04-24T07:14:13;2.78;;;0.80;;
27293;SDS011;14785;52.556;13.430;2023-04-24T07:16:38;1.17;;;0.70;;
27293;SDS011;14785;52.556;13.430;2023-04-24T07:19:04;1.23;;;0.63;;
27293;SDS011;14785;52.556;13.430;2023-04-24T07:21:29;1.03;;;0.93;;
27293;SDS011;14785;52.556;13.430;2023-04-24T07:23:56;7.63;;;0.70;;
27293;SDS011;14785;52.556;13.430;2023-04-24T07:26:21;0.63;;;0.40;;
27293;SDS011;14785;52.556;13.430;2023-04-24T07:28:47;0.83;;;0.40;;
27293;SDS011;14785;52.556;13.430;2023-04-24T07:31:12;2.40;;;1.00;;
27293;SDS011;14785;52.556;13.430;2023-04-24T07:33:37;0.73;;;0.47;;
27293;SDS011;14785;52.556;13.430;2023-04-24T07:36:03;1.03;;;0.67;;
27293;SDS011;14785;52.556;13.430;2023-04-24T07:38:30;1.65;;;0.65;;
27293;SDS011;14785;52.556;13.430;2023-04-24T07:40:56;0.88;;;0.55;;
27293;SDS011;14785;52.556;13.430;2023-04-24T07:43:21;1.03;;;0.60;;
27293;SDS011;14785;52.556;13.430;2023-04-24T07:45:48;4.75;;;0.60;;
27293;SDS011;14785;52.556;13.430;2023-04-24T07:48:14;1.00;;;0.30;;
27293;SDS011;14785;52.556;13.430;2023-04-24T07:53:06;0.77;;;0.40;;
27293;SDS011;14785;52.556;13.430;2023-04-24T07:55:32;0.37;;;0.37;;
27293;SDS011;14785;52.556;13.430;2023-04-24T07:57:57;0.63;;;0.40;;
27293;SDS011;14785;52.556;13.430;2023-04-24T08:00:23;0.30;;;0.20;;
27293;SDS011;14785;52.556;13.430;2023-04-24T08:02:48;0.23;;;0.23;;
27293;SDS011;14785;52.556;13.430;2023-04-24T08:05:13;0.77;;;0.43;;
27293;SDS011;14785;52.556;13.430;2023-04-24T08:07:39;0.20;;;0.20;;
27293;SDS011;14785;52.556;13.430;2023-04-24T08:10:07;0.68;;;0.45;;
27293;SDS011;14785;52.556;13.430;2023-04-24T08:12:34;2.80;;;0.55;;
27293;SDS011;14785;52.556;13.430;2023-04-24T08:15:00;0.63;;;0.53;;
27293;SDS011;14785;52.556;13.430;2023-04-24T08:17:25;2.03;;;0.37;;
27293;SDS011;14785;52.556;13.430;2023-04-24T08:19:51;0.40;;;0.40;;
27293;SDS011;14785;52.556;13.430;2023-04-24T08:22:18;2.00;;;0.40;;
27293;SDS011;14785;52.556;13.430;2023-04-24T08:24:43;5.60;;;1.40;;
27293;SDS011;14785;52.556;13.430;2023-04-24T08:27:09;2.90;;;0.67;;
27293;SDS011;14785;52.556;13.430;2023-04-24T08:29:35;1.05;;;0.63;;
27293;SDS011;14785;52.556;13.430;2023-04-24T08:32:01;1.10;;;0.47;;
27293;SDS011;14785;52.556;13.430;2023-04-24T08:34:27;0.75;;;0.65;;
27293;SDS011;14785;52.556;13.430;2023-04-24T08:36:52;1.13;;;0.33;;
27293;SDS011;14785;52.556;13.430;2023-04-24T08:39:18;1.50;;;0.83;;
27293;SDS011;14785;52.556;13.430;2023-04-24T08:41:44;1.17;;;0.60;;
27293;SDS011;14785;52.556;13.430;2023-04-24T08:46:36;0.30;;;0.28;;
27293;SDS011;14785;52.556;13.430;2023-04-24T08:49:02;0.60;;;0.50;;
27293;SDS011;14785;52.556;13.430;2023-04-24T08:53:55;1.53;;;0.40;;
27293;SDS011;14785;52.556;13.430;2023-04-24T08:56:22;0.88;;;0.47;;
27293;SDS011;14785;52.556;13.430;2023-04-24T08:58:50;0.93;;;0.52;;
27293;SDS011;14785;52.556;13.430;2023-04-24T09:01:16;0.35;;;0.20;;
27293;SDS011;14785;52.556;13.430;2023-04-24T09:03:44;0.30;;;0.30;;
27293;SDS011;14785;52.556;13.430;2023-04-24T09:06:11;0.38;;;0.38;;
27293;SDS011;14785;52.556;13.430;2023-04-24T09:08:37;0.40;;;0.30;;
27293;SDS011;14785;52.556;13.430;2023-04-24T09:11:04;1.58;;;0.47;;
27293;SDS011;14785;52.556;13.430;2023-04-24T09:13:30;1.40;;;0.40;;
27293;SDS011;14785;52.556;13.430;2023-04-24T09:15:56;0.20;;;0.20;;
27293;SDS011;14785;52.556;13.430;2023-04-24T09:18:22;0.50;;;0.43;;
27293;SDS011;14785;52.556;13.430;2023-04-24T09:21:04;1.20;;;0.60;;
27293;SDS011;14785;52.556;13.430;2023-04-24T09:23:32;1.08;;;0.75;;
27293;SDS011;14785;52.556;13.430;2023-04-24T09:25:58;0.30;;;0.30;;
27293;SDS011;14785;52.556;13.430;2023-04-24T09:28:32;6.32;;;0.75;;
27293;SDS011;14785;52.556;13.430;2023-04-24T09:33:34;0.38;;;0.20;;
27293;SDS011;14785;52.556;13.430;2023-04-24T09:35:59;0.43;;;0.40;;
27293;SDS011;14785;52.556;13.430;2023-04-24T09:41:12;2.35;;;0.50;;
27293;SDS011;14785;52.556;13.430;2023-04-24T09:43:38;0.70;;;0.40;;
27293;SDS011;14785;52.556;13.430;2023-04-24T09:46:07;0.30;;;0.30;;
27293;SDS011;14785;52.556;13.430;2023-04-24T09:48:35;4.60;;;1.67;;
27293;SDS011;14785;52.556;13.430;2023-04-24T09:51:02;3.33;;;1.02;;
27293;SDS011;14785;52.556;13.430;2023-04-24T09:53:31;1.13;;;0.60;;
27293;SDS011;14785;52.556;13.430;2023-04-24T09:56:07;1.42;;;0.30;;
27293;SDS011;14785;52.556;13.430;2023-04-24T09:58:34;2.13;;;0.40;;
27293;SDS011;14785;52.556;13.430;2023-04-24T10:01:02;0.65;;;0.60;;
27293;SDS011;14785;52.556;13.430;2023-04-24T10:03:31;1.70;;;0.93;;
27293;SDS011;14785;52.556;13.430;2023-04-24T10:06:02;0.50;;;0.47;;
27293;SDS011;14785;52.556;13.430;2023-04-24T10:08:34;2.17;;;0.40;;
27293;SDS011;14785;52.556;13.430;2023-04-24T10:11:00;0.20;;;0.20;;
27293;SDS011;14785;52.556;13.430;2023-04-24T10:13:26;0.60;;;0.40;;
27293;SDS011;14785;52.556;13.430;2023-04-24T10:15:52;0.43;;;0.30;;
27293;SDS011;14785;52.556;13.430;2023-04-24T10:18:19;0.20;;;0.20;;
27293;SDS011;14785;52.556;13.430;2023-04-24T10:20:47;0.55;;;0.50;;
27293;SDS011;14785;52.556;13.430;2023-04-24T10:23:13;0.40;;;0.40;;
27293;SDS011;14785;52.556;13.430;2023-04-24T10:25:40;0.82;;;0.52;;
27293;SDS011;14785;52.556;13.430;2023-04-24T10:28:06;0.40;;;0.30;;
27293;SDS011;14785;52.556;13.430;2023-04-24T10:30:32;0.20;;;0.20;;
27293;SDS011;14785;52.556;13.430;2023-04-24T10:33:02;0.43;;;0.43;;
27293;SDS011;14785;52.556;13.430;2023-04-24T10:35:30;0.30;;;0.30;;
27293;SDS011;14785;52.556;13.430;2023-04-24T10:37:58;1.38;;;0.38;;
27293;SDS011;14785;52.556;13.430;2023-04-24T10:40:31;1.67;;;0.80;;
27293;SDS011;14785;52.556;13.430;2023-04-24T10:42:59;0.28;;;0.28;;
27293;SDS011;14785;52.556;13.430;2023-04-24T10:45:27;0.22;;;0.20;;
27293;SDS011;14785;52.556;13.430;2023-04-24T10:48:01;0.83;;;0.30;;
27293;SDS011;14785;52.556;13.430;2023-04-24T10:50:28;2.83;;;0.60;;
27293;SDS011;14785;52.556;13.430;2023-04-24T10:53:05;0.65;;;0.45;;
27293;SDS011;14785;52.556;13.430;2023-04-24T10:55:42;1.65;;;0.38;;
27293;SDS011;14785;52.556;13.430;2023-04-24T10:58:11;2.97;;;0.57;;
27293;SDS011;14785;52.556;13.430;2023-04-24T11:00:40;0.90;;;0.50;;
27293;SDS011;14785;52.556;13.430;2023-04-24T11:05:51;0.85;;;0.40;;
27293;SDS011;14785;52.556;13.430;2023-04-24T11:08:31;2.28;;;0.43;;
27293;SDS011;14785;52.556;13.430;2023-04-24T11:11:10;0.30;;;0.30;;
27293;SDS011;14785;52.556;13.430;2023-04-24T11:21:39;0.30;;;0.30;;
27293;SDS011;14785;52.556;13.430;2023-04-24T11:34:49;1.33;;;0.63;;
27293;SDS011;14785;52.556;13.430;2023-04-24T11:37:17;1.08;;;0.70;;
27293;SDS011;14785;52.556;13.430;2023-04-24T11:39:43;4.03;;;0.70;;
27293;SDS011;14785;52.556;13.430;2023-04-24T11:42:08;0.97;;;0.70;;
27293;SDS011;14785;52.556;13.430;2023-04-24T11:44:34;0.55;;;0.40;;
27293;SDS011;14785;52.556;13.430;2023-04-24T11:47:04;2.50;;;0.73;;
27293;SDS011;14785;52.556;13.430;2023-04-24T11:49:30;1.35;;;0.50;;
27293;SDS011;14785;52.556;13.430;2023-04-24T11:51:56;0.53;;;0.40;;
27293;SDS011;14785;52.556;13.430;2023-04-24T11:54:21;0.87;;;0.60;;
27293;SDS011;14785;52.556;13.430;2023-04-24T11:56:47;1.70;;;0.40;;
27293;SDS011;14785;52.556;13.430;2023-04-24T11:59:14;1.13;;;0.45;;
27293;SDS011;14785;52.556;13.430;2023-04-24T12:01:46;1.13;;;0.53;;
27293;SDS011;14785;52.556;13.430;2023-04-24T12:04:12;0.35;;;0.30;;
27293;SDS011;14785;52.556;13.430;2023-04-24T12:06:39;1.40;;;0.60;;
27293;SDS011;14785;52.556;13.430;2023-04-24T12:09:04;1.37;;;0.67;;
27293;SDS011;14785;52.556;13.430;2023-04-24T12:11:30;0.40;;;0.40;;
27293;SDS011;14785;52.556;13.430;2023-04-24T12:13:55;0.57;;;0.47;;
27293;SDS011;14785;52.556;13.430;2023-04-24T12:16:21;0.80;;;0.40;;
27293;SDS011;14785;52.556;13.430;2023-04-24T12:18:46;0.30;;;0.30;;
27293;SDS011;14785;52.556;13.430;2023-04-24T12:21:18;1.57;;;0.47;;
27293;SDS011;14785;52.556;13.430;2023-04-24T12:23:45;0.43;;;0.35;;
27293;SDS011;14785;52.556;13.430;2023-04-24T12:26:11;1.52;;;0.80;;
27293;SDS011;14785;52.556;13.430;2023-04-24T12:28:40;2.20;;;0.50;;
27293;SDS011;14785;52.556;13.430;2023-04-24T12:31:06;1.43;;;0.93;;
27293;SDS011;14785;52.556;13.430;2023-04-24T12:33:33;2.15;;;0.65;;
27293;SDS011;14785;52.556;13.430;2023-04-24T12:36:00;0.98;;;0.52;;
27293;SDS011;14785;52.556;13.430;2023-04-24T12:38:26;0.50;;;0.50;;
27293;SDS011;14785;52.556;13.430;2023-04-24T12:41:01;2.97;;;0.70;;
27293;SDS011;14785;52.556;13.430;2023-04-24T12:43:29;0.47;;;0.32;;
27293;SDS011;14785;52.556;13.430;2023-04-24T12:45:55;0.40;;;0.30;;
27293;SDS011;14785;52.556;13.430;2023-04-24T12:48:20;1.83;;;0.80;;
27293;SDS011;14785;52.556;13.430;2023-04-24T12:50:47;0.88;;;0.57;;
27293;SDS011;14785;52.556;13.430;2023-04-24T12:53:12;1.33;;;0.80;;
27293;SDS011;14785;52.556;13.430;2023-04-24T12:55:38;3.28;;;0.60;;
27293;SDS011;14785;52.556;13.430;2023-04-24T12:58:04;0.33;;;0.30;;
27293;SDS011;14785;52.556;13.430;2023-04-24T13:00:29;0.97;;;0.50;;
27293;SDS011;14785;52.556;13.430;2023-04-24T13:02:55;4.47;;;0.57;;
27293;SDS011;14785;52.556;13.430;2023-04-24T13:05:20;0.73;;;0.43;;
27293;SDS011;14785;52.556;13.430;2023-04-24T13:07:46;0.93;;;0.53;;
27293;SDS011;14785;52.556;13.430;2023-04-24T13:10:11;0.43;;;0.40;;
27293;SDS011;14785;52.556;13.430;2023-04-24T13:12:38;0.50;;;0.38;;
27293;SDS011;14785;52.556;13.430;2023-04-24T13:15:04;0.43;;;0.43;;
27293;SDS011;14785;52.556;13.430;2023-04-24T13:17:30;0.55;;;0.55;;
27293;SDS011;14785;52.556;13.430;2023-04-24T13:19:55;0.30;;;0.30;;
27293;SDS011;14785;52.556;13.430;2023-04-24T13:22:21;0.40;;;0.40;;
27293;SDS011;14785;52.556;13.430;2023-04-24T13:24:46;2.13;;;0.50;;
27293;SDS011;14785;52.556;13.430;2023-04-24T13:27:14;0.77;;;0.60;;
27293;SDS011;14785;52.556;13.430;2023-04-24T13:29:40;0.60;;;0.52;;
27293;SDS011;14785;52.556;13.430;2023-04-24T13:32:06;0.80;;;0.40;;
27293;SDS011;14785;52.556;13.430;2023-04-24T13:34:32;1.60;;;0.73;;
27293;SDS011;14785;52.556;13.430;2023-04-24T13:36:59;11.15;;;0.85;;
27293;SDS011;14785;52.556;13.430;2023-04-24T13:39:25;1.63;;;0.37;;
27293;SDS011;14785;52.556;13.430;2023-04-24T13:41:51;4.57;;;0.60;;
27293;SDS011;14785;52.556;13.430;2023-04-24T13:44:17;2.88;;;0.60;;
27293;SDS011;14785;52.556;13.430;2023-04-24T13:46:44;1.27;;;0.60;;
27293;SDS011;14785;52.556;13.430;2023-04-24T13:49:11;0.85;;;0.50;;
27293;SDS011;14785;52.556;13.430;2023-04-24T13:51:37;0.63;;;0.43;;
27293;SDS011;14785;52.556;13.430;2023-04-24T13:54:03;0.43;;;0.40;;
27293;SDS011;14785;52.556;13.430;2023-04-24T13:56:29;0.37;;;0.30;;
27293;SDS011;14785;52.556;13.430;2023-04-24T13:58:54;0.63;;;0.40;;
27293;SDS011;14785;52.556;13.430;2023-04-24T14:01:20;1.73;;;0.63;;
27293;SDS011;14785;52.556;13.430;2023-04-24T14:03:49;1.33;;;0.88;;
27293;SDS011;14785;52.556;13.430;2023-04-24T14:06:15;1.17;;;0.57;;
27293;SDS011;14785;52.556;13.430;2023-04-24T14:08:40;0.73;;;0.37;;
27293;SDS011;14785;52.556;13.430;2023-04-24T14:11:05;1.67;;;0.70;;
27293;SDS011;14785;52.556;13.430;2023-04-24T14:13:31;0.50;;;0.50;;
27293;SDS011;14785;52.556;13.430;2023-04-24T14:15:56;1.30;;;0.57;;
27293;SDS011;14785;52.556;13.430;2023-04-24T14:18:23;0.38;;;0.38;;
27293;SDS011;14785;52.556;13.430;2023-04-24T14:20:48;0.30;;;0.30;;
27293;SDS011;14785;52.556;13.430;2023-04-24T14:23:13;0.10;;;0.10;;
27293;SDS011;14785;52.556;13.430;2023-04-24T14:25:39;0.80;;;0.50;;
27293;SDS011;14785;52.556;13.430;2023-04-24T14:28:05;0.50;;;0.43;;
27293;SDS011;14785;52.556;13.430;2023-04-24T14:30:32;0.80;;;0.60;;
27293;SDS011;14785;52.556;13.430;2023-04-24T14:32:57;0.67;;;0.53;;
27293;SDS011;14785;52.556;13.430;2023-04-24T14:35:23;0.47;;;0.47;;
27293;SDS011;14785;52.556;13.430;2023-04-24T14:37:48;0.47;;;0.40;;
27293;SDS011;14785;52.556;13.430;2023-04-24T14:40:14;0.40;;;0.40;;
27293;SDS011;14785;52.556;13.430;2023-04-24T14:42:40;1.25;;;0.50;;
27293;SDS011;14785;52.556;13.430;2023-04-24T14:45:05;0.70;;;0.43;;
27293;SDS011;14785;52.556;13.430;2023-04-24T14:47:31;1.02;;;0.88;;
27293;SDS011;14785;52.556;13.430;2023-04-24T14:49:57;0.70;;;0.60;;
27293;SDS011;14785;52.556;13.430;2023-04-24T14:52:23;1.92;;;0.40;;
27293;SDS011;14785;52.556;13.430;2023-04-24T14:54:48;2.07;;;0.40;;
27293;SDS011;14785;52.556;13.430;2023-04-24T14:57:14;2.03;;;0.30;;
27293;SDS011;14785;52.556;13.430;2023-04-24T14:59:39;1.43;;;0.80;;
27293;SDS011;14785;52.556;13.430;2023-04-24T15:02:05;1.33;;;0.73;;
27293;SDS011;14785;52.556;13.430;2023-04-24T15:04:31;0.80;;;0.50;;
27293;SDS011;14785;52.556;13.430;2023-04-24T15:06:56;1.03;;;0.70;;
27293;SDS011;14785;52.556;13.430;2023-04-24T15:09:24;2.60;;;0.50;;
27293;SDS011;14785;52.556;13.430;2023-04-24T15:11:51;0.52;;;0.50;;